Time;durP1;ratioP1;P1;durP2;ratioP2;P2;SDS_P1;SDS_P2;PMS_P1;PMS_P2;Temp;Humidity;BMP_temperature;BMP_pressure;BME280_temperature;BME280_humidity;BME280_pressure;Samples;Min_cycle;Max_cycle;Signal;HPM_P1;HPM_P2
2021/01/13 00:02:21;;;;;;;9.50;1.60;;;2.00;94.30;;;;;;5127290;28;21332;-69
2021/01/13 00:04:47;;;;;;;12.70;2.22;;;1.90;94.60;;;;;;5127302;28;20089;-69
2021/01/13 00:07:14;;;;;;;11.48;1.90;;;1.90;94.60;;;;;;5127194;28;20059;-69
2021/01/13 00:09:43;;;;;;;13.57;2.50;;;1.90;94.90;;;;;;5126962;28;20048;-69
2021/01/13 00:12:10;;;;;;;12.32;2.40;;;1.90;95.10;;;;;;5127098;28;20035;-70
2021/01/13 00:14:37;;;;;;;15.77;3.13;;;1.90;95.00;;;;;;5126756;28;20054;-69
2021/01/13 00:17:05;;;;;;;18.00;3.88;;;1.90;95.10;;;;;;5127089;28;20074;-69
2021/01/13 00:19:31;;;;;;;11.30;2.10;;;2.00;95.00;;;;;;5126686;28;20043;-69
2021/01/13 00:21:57;;;;;;;13.02;1.95;;;2.00;94.80;;;;;;5126729;28;20054;-69
2021/01/13 00:24:24;;;;;;;12.38;2.40;;;2.00;94.90;;;;;;5127368;28;20116;-69
2021/01/13 00:26:58;;;;;;;13.63;1.98;;;2.20;94.80;;;;;;5127172;28;20107;-69
2021/01/13 00:29:24;;;;;;;13.38;1.98;;;2.30;94.40;;;;;;5126812;28;20139;-69
2021/01/13 00:31:50;;;;;;;17.85;2.60;;;2.30;94.20;;;;;;5126936;28;20424;-69
2021/01/13 00:34:16;;;;;;;9.50;1.80;;;2.30;94.30;;;;;;5125999;28;20051;-69
2021/01/13 00:36:43;;;;;;;10.48;1.88;;;2.20;94.20;;;;;;5119652;28;20052;-69
2021/01/13 00:39:10;;;;;;;10.15;2.30;;;2.10;94.70;;;;;;5120659;28;20044;-69
2021/01/13 00:41:39;;;;;;;13.55;2.50;;;2.10;94.70;;;;;;5127200;28;20047;-69
2021/01/13 00:44:05;;;;;;;12.57;1.90;;;2.00;94.80;;;;;;5125975;28;20048;-69
2021/01/13 00:46:36;;;;;;;13.48;1.98;;;1.90;94.90;;;;;;5126985;28;20043;-69
2021/01/13 00:49:02;;;;;;;;;;;1.90;95.10;;;;;;5126620;28;20059;-69
2021/01/13 00:51:41;;;;;;;15.43;2.03;;;1.90;95.10;;;;;;5126259;28;19920;-69
2021/01/13 00:54:09;;;;;;;12.73;1.83;;;1.80;95.20;;;;;;5125891;28;20043;-69
2021/01/13 00:56:39;;;;;;;12.90;1.85;;;1.80;95.50;;;;;;5117050;28;20055;-69
2021/01/13 00:59:04;;;;;;;16.45;2.63;;;1.80;95.20;;;;;;5121977;28;20043;-69
2021/01/13 01:01:30;;;;;;;14.23;2.33;;;1.70;95.20;;;;;;5126098;28;20039;-69
2021/01/13 01:03:57;;;;;;;9.73;2.33;;;1.70;95.30;;;;;;5125995;28;20124;-69
2021/01/13 01:06:23;;;;;;;11.50;1.88;;;1.80;95.10;;;;;;5125946;28;20499;-70
2021/01/13 01:08:51;;;;;;;18.98;2.53;;;1.80;95.10;;;;;;5111621;28;20043;-69
2021/01/13 01:11:24;;;;;;;10.98;2.50;;;1.90;94.80;;;;;;5125890;28;20039;-69
2021/01/13 01:13:50;;;;;;;11.73;2.08;;;2.00;94.50;;;;;;5125397;28;20051;-69
2021/01/13 01:16:16;;;;;;;9.57;1.90;;;2.10;94.20;;;;;;5125427;28;20443;-69
2021/01/13 01:18:43;;;;;;;11.27;2.47;;;2.10;94.10;;;;;;5125668;28;20483;-69
2021/01/13 01:21:09;;;;;;;8.05;1.83;;;2.20;93.90;;;;;;5125896;28;20130;-69
2021/01/13 01:23:36;;;;;;;10.75;1.52;;;2.40;93.60;;;;;;5126613;28;20052;-69
2021/01/13 01:26:03;;;;;;;5.88;1.95;;;2.40;93.40;;;;;;5126145;28;20051;-69
2021/01/13 01:28:29;;;;;;;7.22;1.75;;;2.60;93.30;;;;;;5125684;28;20047;-69
2021/01/13 01:30:55;;;;;;;5.15;1.17;;;2.70;93.00;;;;;;5125911;28;20046;-69
2021/01/13 01:33:21;;;;;;;10.45;2.28;;;2.60;93.10;;;;;;5124989;28;20054;-69
2021/01/13 01:35:46;;;;;;;12.23;1.42;;;2.50;93.30;;;;;;5125443;28;20051;-69
2021/01/13 01:38:13;;;;;;;11.80;1.88;;;2.60;93.30;;;;;;5125798;28;20127;-69
2021/01/13 01:40:39;;;;;;;6.78;1.40;;;2.60;93.60;;;;;;5125090;28;20043;-69
2021/01/13 01:43:05;;;;;;;10.85;2.28;;;2.70;93.70;;;;;;5125590;28;20055;-69
2021/01/13 01:45:32;;;;;;;6.97;1.20;;;2.70;93.60;;;;;;5124704;28;20111;-69
2021/01/13 01:47:58;;;;;;;9.55;1.40;;;2.70;93.80;;;;;;5112171;28;20055;-69
2021/01/13 01:50:28;;;;;;;8.43;1.77;;;2.80;93.60;;;;;;5125159;28;20107;-69
2021/01/13 01:53:07;;;;;;;7.97;1.42;;;2.80;93.60;;;;;;5113121;28;20073;-69
2021/01/13 01:55:40;;;;;;;7.30;1.63;;;2.80;93.30;;;;;;5124885;28;20039;-69
2021/01/13 01:58:10;;;;;;;13.23;1.65;;;2.80;93.40;;;;;;5125669;28;20047;-69
2021/01/13 02:00:36;;;;;;;8.50;2.17;;;2.70;93.40;;;;;;5125422;28;20144;-69
2021/01/13 02:03:16;;;;;;;9.25;1.40;;;2.60;93.60;;;;;;5125506;28;20046;-69
2021/01/13 02:05:43;;;;;;;9.32;1.73;;;2.60;93.70;;;;;;5124831;28;20062;-69
2021/01/13 02:08:24;;;;;;;8.45;1.58;;;2.60;93.50;;;;;;5125474;28;20065;-69
2021/01/13 02:10:50;;;;;;;11.30;1.88;;;2.70;93.80;;;;;;5111468;28;20047;-69
2021/01/13 02:13:19;;;;;;;7.70;1.85;;;2.70;93.70;;;;;;5111859;28;20051;-69
2021/01/13 02:15:49;;;;;;;10.40;2.13;;;2.70;93.70;;;;;;5124842;28;20067;-69
2021/01/13 02:18:22;;;;;;;10.27;2.38;;;2.70;93.60;;;;;;5125137;28;20076;-69
2021/01/13 02:20:53;;;;;;;12.32;2.17;;;2.70;93.60;;;;;;5127481;28;20044;-69
2021/01/13 02:23:57;;;;;;;15.13;2.33;;;2.70;93.60;;;;;;5128785;27;20059;-69
2021/01/13 02:26:29;;;;;;;13.05;2.63;;;2.80;93.90;;;;;;5121950;27;20101;-69
2021/01/13 02:29:11;;;;;;;11.40;2.20;;;3.00;93.40;;;;;;5129272;28;20059;-69
2021/01/13 02:31:55;;;;;;;15.00;2.00;;;3.00;93.40;;;;;;5115306;28;20064;-69
2021/01/13 02:34:38;;;;;;;14.93;2.60;;;3.00;93.40;;;;;;5128970;28;20530;-69
2021/01/13 02:37:41;;;;;;;11.70;2.00;;;2.90;93.70;;;;;;5129345;28;20044;-69
2021/01/13 02:40:10;;;;;;;9.52;1.63;;;2.70;94.30;;;;;;5085785;28;20131;-69
2021/01/13 02:42:41;;;;;;;9.75;1.75;;;2.60;94.70;;;;;;5121653;27;20052;-69
2021/01/13 02:45:14;;;;;;;11.52;1.70;;;2.70;94.80;;;;;;5122984;28;20040;-69
2021/01/13 02:47:58;;;;;;;14.80;2.13;;;2.70;94.90;;;;;;5122080;28;20487;-69
2021/01/13 02:50:27;;;;;;;9.65;2.10;;;2.80;94.90;;;;;;5128851;28;20073;-68
2021/01/13 02:53:14;;;;;;;15.20;2.28;;;2.70;95.40;;;;;;5127372;28;20093;-69
2021/01/13 02:55:51;;;;;;;8.38;1.40;;;2.60;95.40;;;;;;5120012;28;20055;-69
2021/01/13 02:58:25;;;;;;;7.85;1.50;;;2.50;95.70;;;;;;5128788;28;20065;-69
2021/01/13 03:00:51;;;;;;;16.30;1.80;;;2.40;95.80;;;;;;5128530;28;20035;-69
2021/01/13 03:03:18;;;;;;;15.68;2.20;;;2.30;96.10;;;;;;5114893;28;20059;-69
2021/01/13 03:05:47;;;;;;;9.15;1.83;;;2.30;96.20;;;;;;5128313;28;20035;-68
2021/01/13 03:08:14;;;;;;;12.73;1.90;;;2.10;96.40;;;;;;5128299;28;20059;-69
2021/01/13 03:10:47;;;;;;;12.02;2.78;;;2.10;96.50;;;;;;5128061;28;20055;-68
2021/01/13 03:13:13;;;;;;;9.68;2.45;;;2.10;96.20;;;;;;5128120;28;20048;-69
2021/01/13 03:15:40;;;;;;;9.85;2.05;;;2.10;96.20;;;;;;5128046;28;20048;-69
2021/01/13 03:18:10;;;;;;;7.30;2.10;;;2.00;96.50;;;;;;5128314;28;20073;-69
2021/01/13 03:20:59;;;;;;;12.90;2.55;;;2.00;96.40;;;;;;5128440;28;20077;-69
2021/01/13 03:23:28;;;;;;;11.65;1.55;;;2.00;96.60;;;;;;5128641;27;20465;-69
2021/01/13 03:25:59;;;;;;;7.82;1.92;;;2.00;97.10;;;;;;5135564;27;20050;-68
2021/01/13 03:28:27;;;;;;;12.27;1.80;;;2.00;97.00;;;;;;5128121;28;20052;-69
2021/01/13 03:30:54;;;;;;;15.25;2.20;;;2.10;97.20;;;;;;5127656;28;20043;-69
2021/01/13 03:33:26;;;;;;;10.10;2.17;;;2.10;96.90;;;;;;5114151;28;20047;-69
2021/01/13 03:36:08;;;;;;;8.35;1.60;;;2.10;96.90;;;;;;5126736;28;20428;-69
2021/01/13 03:38:45;;;;;;;10.13;1.88;;;2.20;96.70;;;;;;5116816;28;20564;-69
2021/01/13 03:41:13;;;;;;;9.20;1.85;;;2.20;96.70;;;;;;5128059;28;20053;-69
2021/01/13 03:43:40;;;;;;;6.15;1.45;;;2.20;96.70;;;;;;5127854;28;20066;-69
2021/01/13 03:46:08;;;;;;;8.13;1.70;;;2.20;96.60;;;;;;5127413;28;20065;-69
2021/01/13 03:48:48;;;;;;;11.38;1.40;;;2.20;96.80;;;;;;5127778;28;20051;-69
2021/01/13 03:51:52;;;;;;;7.80;1.55;;;2.20;96.70;;;;;;5127881;28;20047;-69
2021/01/13 03:54:24;;;;;;;9.82;1.55;;;2.30;96.50;;;;;;5127111;28;20054;-69
2021/01/13 03:57:23;;;;;;;6.55;1.90;;;2.30;96.40;;;;;;5127242;28;20058;-69
2021/01/13 04:00:08;;;;;;;7.68;1.40;;;2.30;96.70;;;;;;5108909;28;20039;-69
2021/01/13 04:03:07;;;;;;;11.23;1.67;;;2.40;96.10;;;;;;5127289;28;20062;-69
2021/01/13 04:05:40;;;;;;;7.80;1.40;;;2.70;95.70;;;;;;5126593;28;20051;-69
2021/01/13 04:08:06;;;;;;;9.02;1.40;;;2.70;95.30;;;;;;5127414;28;20047;-69
2021/01/13 04:10:32;;;;;;;9.23;1.60;;;2.60;95.70;;;;;;5113044;28;20044;-69
2021/01/13 04:13:25;;;;;;;11.05;2.45;;;2.60;95.70;;;;;;5126838;28;20123;-68
2021/01/13 04:15:51;;;;;;;8.57;1.40;;;2.70;95.80;;;;;;5105070;28;20060;-69
2021/01/13 04:18:18;;;;;;;9.70;2.25;;;2.70;96.10;;;;;;5119081;28;20061;-69
2021/01/13 04:20:44;;;;;;;12.88;1.77;;;2.70;96.10;;;;;;5121837;28;20051;-69
2021/01/13 04:23:10;;;;;;;10.02;1.85;;;2.70;96.20;;;;;;5118745;28;20051;-69
2021/01/13 04:25:37;;;;;;;9.27;1.55;;;2.70;96.30;;;;;;5127189;28;20044;-68
2021/01/13 04:28:03;;;;;;;6.22;1.80;;;2.70;96.50;;;;;;5126808;28;20052;-69
2021/01/13 04:30:29;;;;;;;11.77;1.60;;;2.80;96.20;;;;;;5126626;28;20044;-69
2021/01/13 04:32:56;;;;;;;14.70;1.92;;;2.70;96.30;;;;;;5126919;28;20055;-68
2021/01/13 04:35:26;;;;;;;15.73;2.10;;;2.70;96.60;;;;;;5122072;28;20052;-68
2021/01/13 04:37:54;;;;;;;13.75;1.95;;;2.70;96.70;;;;;;5126641;28;20059;-69
2021/01/13 04:40:26;;;;;;;13.02;1.60;;;2.80;96.90;;;;;;5126747;28;20140;-69
2021/01/13 04:43:00;;;;;;;15.63;2.08;;;2.90;96.60;;;;;;5125864;28;20491;-69
2021/01/13 04:45:44;;;;;;;9.45;2.30;;;2.80;96.60;;;;;;5126293;28;20053;-69
2021/01/13 04:48:12;;;;;;;10.32;1.40;;;2.80;96.50;;;;;;5126537;28;20070;-68
2021/01/13 04:50:46;;;;;;;12.70;2.33;;;2.70;96.70;;;;;;5126275;28;20051;-69
2021/01/13 04:53:16;;;;;;;8.18;1.42;;;2.70;96.70;;;;;;5126735;28;20055;-69
2021/01/13 04:55:55;;;;;;;9.40;1.60;;;2.60;96.80;;;;;;5125926;28;20039;-69
2021/01/13 04:58:34;;;;;;;12.32;2.10;;;2.70;96.60;;;;;;5121907;28;20097;-69
2021/01/13 05:01:37;;;;;;;14.35;3.20;;;2.70;96.50;;;;;;5125898;28;20039;-68
2021/01/13 05:04:27;;;;;;;10.32;1.58;;;2.60;96.50;;;;;;5126236;28;20448;-68
2021/01/13 05:07:32;;;;;;;12.13;1.60;;;2.60;96.50;;;;;;5125708;28;20032;-68
2021/01/13 05:10:17;;;;;;;8.38;2.10;;;2.60;96.80;;;;;;5112698;27;20306;-68
2021/01/13 05:12:59;;;;;;;15.57;1.88;;;2.70;96.70;;;;;;5120221;28;20574;-68
2021/01/13 05:15:27;;;;;;;12.45;1.50;;;2.70;96.50;;;;;;5126087;28;20028;-69
2021/01/13 05:18:07;;;;;;;10.20;1.48;;;2.80;96.50;;;;;;5126078;28;20051;-69
2021/01/13 05:20:38;;;;;;;10.65;1.95;;;2.80;96.40;;;;;;5114283;28;20051;-68
2021/01/13 05:23:06;;;;;;;7.03;1.45;;;3.10;95.90;;;;;;5123454;28;20071;-69
2021/01/13 05:25:42;;;;;;;6.93;1.42;;;3.10;95.50;;;;;;5134681;27;20069;-69
2021/01/13 05:28:26;;;;;;;9.27;1.40;;;3.10;95.60;;;;;;5111939;28;20043;-69
2021/01/13 05:30:55;;;;;;;9.32;1.40;;;3.10;95.60;;;;;;5125966;28;20515;-69
2021/01/13 05:33:23;;;;;;;9.68;1.55;;;3.10;95.60;;;;;;5125726;28;20043;-69
2021/01/13 05:35:57;;;;;;;5.53;1.20;;;3.00;95.60;;;;;;5125676;28;20059;-68
2021/01/13 05:39:00;;;;;;;6.82;1.65;;;3.10;95.60;;;;;;5125709;28;20039;-69
2021/01/13 05:41:26;;;;;;;7.68;1.10;;;3.30;95.00;;;;;;5125233;28;20048;-68
2021/01/13 05:43:53;;;;;;;7.60;1.30;;;3.30;94.90;;;;;;5125652;28;20043;-69
2021/01/13 05:46:20;;;;;;;5.15;1.27;;;3.30;95.30;;;;;;5125332;28;20047;-69
2021/01/13 05:48:53;;;;;;;6.70;1.20;;;3.20;95.20;;;;;;5120770;28;20040;-69
2021/01/13 05:51:29;;;;;;;9.48;1.75;;;3.20;95.40;;;;;;5125465;28;20099;-69
2021/01/13 05:53:56;;;;;;;6.30;1.40;;;3.30;95.40;;;;;;5125087;28;20047;-69
2021/01/13 05:56:23;;;;;;;6.80;1.17;;;3.30;95.30;;;;;;5123035;28;20065;-68
2021/01/13 05:59:03;;;;;;;13.38;1.70;;;3.30;95.40;;;;;;5123070;28;20044;-68
2021/01/13 06:01:35;;;;;;;8.27;1.63;;;3.40;95.30;;;;;;5115957;28;20068;-70
2021/01/13 06:04:04;;;;;;;4.78;1.33;;;3.30;95.60;;;;;;5097666;28;20051;-69
2021/01/13 06:06:35;;;;;;;6.05;1.30;;;3.30;95.70;;;;;;5122078;28;20099;-73
2021/01/13 06:09:03;;;;;;;6.05;2.00;;;3.20;95.80;;;;;;5104578;28;20151;-73
2021/01/13 06:11:33;;;;;;;8.43;2.38;;;3.10;95.70;;;;;;5122850;28;20084;-72
2021/01/13 06:14:03;;;;;;;6.45;1.30;;;3.10;95.60;;;;;;5122497;28;20039;-72
2021/01/13 06:16:29;;;;;;;8.90;1.52;;;3.10;95.40;;;;;;5122730;28;20058;-73
2021/01/13 06:18:56;;;;;;;6.18;2.25;;;3.00;95.50;;;;;;5122584;28;20043;-74
2021/01/13 06:21:22;;;;;;;7.57;1.55;;;3.00;95.60;;;;;;5123154;28;20074;-73
2021/01/13 06:23:50;;;;;;;5.82;1.63;;;2.90;96.20;;;;;;5119217;28;20047;-72
2021/01/13 06:26:20;;;;;;;12.13;1.70;;;3.00;96.10;;;;;;5120849;28;20043;-68
2021/01/13 06:29:24;;;;;;;5.30;1.77;;;3.00;96.40;;;;;;5123808;28;20063;-67
2021/01/13 06:31:57;;;;;;;8.00;1.55;;;3.10;95.90;;;;;;5124999;28;20059;-67
2021/01/13 06:34:29;;;;;;;12.45;1.50;;;3.20;95.90;;;;;;5125295;28;20043;-68
2021/01/13 06:37:01;;;;;;;6.38;1.85;;;3.20;96.10;;;;;;5125371;28;20052;-68
2021/01/13 06:39:33;;;;;;;5.15;1.00;;;3.10;96.20;;;;;;5111274;28;20037;-68
2021/01/13 06:41:59;;;;;;;8.23;1.90;;;3.10;96.30;;;;;;5087350;28;20043;-67
2021/01/13 06:44:40;;;;;;;9.68;1.60;;;3.10;96.40;;;;;;5115930;28;20043;-67
2021/01/13 06:47:07;;;;;;;;;;;3.10;96.50;;;;;;5086400;28;20055;-67
2021/01/13 06:49:32;;;;;;;10.55;1.98;;;3.20;96.30;;;;;;5093900;28;20280;-66
2021/01/13 06:51:59;;;;;;;12.80;1.90;;;3.20;96.00;;;;;;5104091;28;20131;-66
2021/01/13 06:54:27;;;;;;;8.38;1.65;;;3.20;96.30;;;;;;5112592;28;20130;-66
2021/01/13 06:56:55;;;;;;;11.48;1.80;;;3.10;96.80;;;;;;5105817;28;20514;-66
2021/01/13 06:59:25;;;;;;;11.43;2.25;;;3.30;95.90;;;;;;5105219;28;20048;-67
2021/01/13 07:01:55;;;;;;;11.45;1.90;;;3.30;96.00;;;;;;5100960;28;20071;-67
2021/01/13 07:04:23;;;;;;;8.63;1.73;;;3.20;96.00;;;;;;5113800;28;20040;-66
2021/01/13 07:07:02;;;;;;;3.53;1.38;;;3.30;95.80;;;;;;5098505;28;20058;-66
2021/01/13 07:09:48;;;;;;;6.78;1.48;;;3.30;95.60;;;;;;5105540;28;20044;-67
2021/01/13 07:12:16;;;;;;;9.02;1.35;;;3.20;95.70;;;;;;5092803;28;20052;-66
2021/01/13 07:14:48;;;;;;;10.25;1.40;;;3.00;96.00;;;;;;5112149;27;20044;-67
2021/01/13 07:17:17;;;;;;;7.90;1.52;;;2.90;96.30;;;;;;5117840;27;20051;-68
2021/01/13 07:19:48;;;;;;;12.30;2.05;;;2.70;96.50;;;;;;5119707;27;20063;-66
2021/01/13 07:22:16;;;;;;;7.63;1.85;;;2.60;96.80;;;;;;5110820;27;20137;-66
2021/01/13 07:24:43;;;;;;;7.82;1.77;;;2.60;96.90;;;;;;5115895;27;20488;-67
2021/01/13 07:27:11;;;;;;;7.80;1.58;;;2.50;97.10;;;;;;5096473;28;20131;-66
2021/01/13 07:29:37;;;;;;;10.68;2.05;;;2.50;96.90;;;;;;5108926;28;20064;-66
2021/01/13 07:32:04;;;;;;;10.82;1.60;;;2.60;97.10;;;;;;5097764;27;20620;-66
2021/01/13 07:34:30;;;;;;;8.27;1.73;;;2.60;96.80;;;;;;5117310;27;20055;-66
2021/01/13 07:37:02;;;;;;;9.23;1.52;;;2.50;97.10;;;;;;5111689;27;20109;-67
2021/01/13 07:39:45;;;;;;;10.70;2.17;;;2.50;97.10;;;;;;5112144;27;20071;-67
2021/01/13 07:42:23;;;;;;;8.95;2.03;;;2.50;97.20;;;;;;5086180;28;20089;-66
2021/01/13 07:45:01;;;;;;;17.13;2.22;;;2.40;97.00;;;;;;5111893;28;20103;-66
2021/01/13 07:47:43;;;;;;;12.07;2.05;;;2.30;97.20;;;;;;5103476;27;20081;-66
2021/01/13 07:50:13;;;;;;;10.40;1.70;;;2.40;97.30;;;;;;5115315;28;20381;-66
2021/01/13 07:52:43;;;;;;;12.82;2.50;;;2.30;97.40;;;;;;5101189;28;20300;-66
2021/01/13 07:55:27;;;;;;;;;;;2.40;97.40;;;;;;5108018;28;20146;-67
2021/01/13 07:57:55;;;;;;;8.40;1.90;;;2.40;97.40;;;;;;5104616;27;20258;-67
2021/01/13 08:00:31;;;;;;;12.35;2.08;;;2.50;97.40;;;;;;5104162;28;20032;-67
2021/01/13 08:03:18;;;;;;;12.32;1.77;;;2.60;97.30;;;;;;5114735;27;20058;-67
2021/01/13 08:06:05;;;;;;;11.30;1.88;;;2.80;97.10;;;;;;5108453;28;20462;-67
2021/01/13 08:09:14;;;;;;;16.17;2.13;;;3.00;96.70;;;;;;5073312;28;20043;-66
2021/01/13 08:12:05;;;;;;;12.95;2.03;;;3.20;96.30;;;;;;5095271;28;20124;-66
2021/01/13 08:15:02;;;;;;;11.05;1.95;;;3.30;96.10;;;;;;5116044;27;20071;-66
2021/01/13 08:17:50;;;;;;;13.02;1.98;;;3.20;96.20;;;;;;5113114;27;20051;-66
2021/01/13 08:20:34;;;;;;;14.73;2.00;;;3.30;96.10;;;;;;5097520;28;20169;-66
2021/01/13 08:23:07;;;;;;;11.57;1.88;;;3.20;96.40;;;;;;5088357;28;20458;-66
2021/01/13 08:25:35;;;;;;;9.85;1.80;;;3.10;96.60;;;;;;5117191;27;20070;-66
2021/01/13 08:28:02;;;;;;;7.47;1.60;;;3.10;96.50;;;;;;5085657;28;20048;-66
2021/01/13 08:30:30;;;;;;;11.70;1.85;;;3.00;96.70;;;;;;5097421;28;20055;-66
2021/01/13 08:32:57;;;;;;;13.43;2.10;;;3.00;96.80;;;;;;5086276;28;20440;-63
2021/01/13 08:35:43;;;;;;;13.82;1.90;;;2.90;96.80;;;;;;5117083;28;20107;-63
2021/01/13 08:38:11;;;;;;;14.40;2.08;;;3.00;96.70;;;;;;5087175;28;20121;-67
2021/01/13 08:40:38;;;;;;;12.93;1.88;;;3.00;96.60;;;;;;5085652;28;20527;-65
2021/01/13 08:43:13;;;;;;;11.82;3.08;;;3.00;96.50;;;;;;5100865;27;20048;-65
2021/01/13 08:45:50;;;;;;;10.27;1.85;;;2.90;96.50;;;;;;5114567;28;20051;-65
2021/01/13 08:48:18;;;;;;;10.32;2.17;;;2.80;96.80;;;;;;5111895;27;20042;-65
2021/01/13 08:51:06;;;;;;;12.77;2.25;;;2.80;97.20;;;;;;5114339;28;20101;-65
2021/01/13 08:53:33;;;;;;;15.23;2.40;;;2.90;97.40;;;;;;5092842;28;20040;-65
2021/01/13 08:56:00;;;;;;;9.07;2.40;;;2.90;97.40;;;;;;5115665;28;20039;-65
2021/01/13 08:58:33;;;;;;;13.18;2.20;;;2.90;97.60;;;;;;5107348;28;20063;-65
2021/01/13 09:01:06;;;;;;;11.15;1.90;;;3.00;97.30;;;;;;5117264;28;20051;-65
2021/01/13 09:03:34;;;;;;;11.57;2.33;;;3.10;97.20;;;;;;5099458;28;20059;-65
2021/01/13 09:06:20;;;;;;;11.68;2.20;;;3.20;96.90;;;;;;5100687;28;20039;-65
2021/01/13 09:08:54;;;;;;;13.02;2.28;;;3.20;96.80;;;;;;5100620;27;20044;-65
2021/01/13 09:11:36;;;;;;;10.75;2.15;;;3.30;96.30;;;;;;5105941;27;20042;-66
2021/01/13 09:14:27;;;;;;;15.25;2.53;;;3.40;96.40;;;;;;5125757;27;20482;-65
2021/01/13 09:16:55;;;;;;;10.80;2.67;;;3.50;96.50;;;;;;5099034;28;20059;-66
2021/01/13 09:19:29;;;;;;;15.30;2.72;;;3.60;96.00;;;;;;5098013;28;20032;-65
2021/01/13 09:22:10;;;;;;;13.52;2.55;;;3.60;96.10;;;;;;5097692;27;20053;-66
2021/01/13 09:24:42;;;;;;;10.85;2.35;;;3.80;95.80;;;;;;5105908;28;20044;-65
2021/01/13 09:27:11;;;;;;;13.30;2.72;;;3.90;95.60;;;;;;5085950;28;20082;-65
2021/01/13 09:29:49;;;;;;;10.85;1.90;;;4.00;95.40;;;;;;5095560;28;20086;-65
2021/01/13 09:32:16;;;;;;;7.15;1.65;;;3.90;94.80;;;;;;5086762;28;20511;-65
2021/01/13 09:34:43;;;;;;;13.23;2.42;;;3.90;94.90;;;;;;5098658;28;20078;-65
2021/01/13 09:37:09;;;;;;;8.45;1.80;;;3.90;94.70;;;;;;5088131;28;20048;-65
2021/01/13 09:39:37;;;;;;;8.07;1.80;;;4.00;94.70;;;;;;5096736;28;20059;-65
2021/01/13 09:42:07;;;;;;;11.60;2.10;;;4.10;94.60;;;;;;5088949;28;20390;-65
2021/01/13 09:44:34;;;;;;;;;;;4.10;94.70;;;;;;5105965;28;20047;-65
2021/01/13 09:47:21;;;;;;;10.68;2.05;;;4.10;94.80;;;;;;5107838;28;19979;-65
2021/01/13 09:49:49;;;;;;;8.48;1.77;;;4.10;95.00;;;;;;5121628;27;20051;-66
2021/01/13 09:52:16;;;;;;;12.60;1.60;;;4.00;94.90;;;;;;5102610;28;20047;-65
2021/01/13 09:54:50;;;;;;;13.75;1.92;;;3.90;95.40;;;;;;5102411;28;20035;-66
2021/01/13 09:57:16;;;;;;;8.60;1.75;;;4.00;95.50;;;;;;5090365;28;20051;-66
2021/01/13 10:00:07;;;;;;;12.57;2.35;;;4.00;95.80;;;;;;5107888;28;20043;-66
2021/01/13 10:02:33;;;;;;;8.65;2.08;;;4.10;95.90;;;;;;5085719;28;20044;-65
2021/01/13 10:04:59;;;;;;;7.30;1.77;;;4.20;95.80;;;;;;5098550;28;20176;-66
2021/01/13 10:07:33;;;;;;;10.68;2.15;;;4.30;95.60;;;;;;5093028;28;20549;-66
2021/01/13 10:10:00;;;;;;;16.60;2.30;;;4.50;95.40;;;;;;5098009;28;20054;-66
2021/01/13 10:12:45;;;;;;;13.68;2.10;;;4.70;95.30;;;;;;5093436;28;20139;-65
2021/01/13 10:15:13;;;;;;;15.48;2.47;;;4.80;94.60;;;;;;5104273;28;20068;-66
2021/01/13 10:17:40;;;;;;;8.48;1.75;;;4.70;95.20;;;;;;5084589;28;20048;-66
2021/01/13 10:20:25;;;;;;;14.35;2.30;;;5.00;95.30;;;;;;5095760;28;20044;-66
2021/01/13 10:22:52;;;;;;;12.30;2.60;;;5.00;94.80;;;;;;5085563;28;20044;-66
2021/01/13 10:25:29;;;;;;;12.27;1.90;;;4.90;94.60;;;;;;5107394;28;20036;-65
2021/01/13 10:27:56;;;;;;;13.05;2.95;;;4.90;94.60;;;;;;5084151;28;20129;-65
2021/01/13 10:30:22;;;;;;;10.82;1.80;;;5.00;94.40;;;;;;5097847;28;20075;-65
2021/01/13 10:32:55;;;;;;;11.82;2.15;;;5.10;94.00;;;;;;5087074;28;20039;-65
2021/01/13 10:35:23;;;;;;;12.23;2.22;;;5.10;93.70;;;;;;5097138;28;20594;-65
2021/01/13 10:37:56;;;;;;;8.18;1.75;;;5.20;93.50;;;;;;5084848;28;20139;-66
2021/01/13 10:40:23;;;;;;;9.40;1.90;;;5.30;92.60;;;;;;5100468;28;20172;-66
2021/01/13 10:42:52;;;;;;;12.77;2.78;;;5.40;93.20;;;;;;5094698;28;20039;-65
2021/01/13 10:45:19;;;;;;;6.75;1.40;;;5.40;92.50;;;;;;5119406;27;20114;-65
2021/01/13 10:47:57;;;;;;;11.60;1.70;;;5.30;92.60;;;;;;5098069;27;20040;-66
2021/01/13 10:50:26;;;;;;;10.00;2.03;;;5.40;92.60;;;;;;5122703;27;20055;-66
2021/01/13 10:52:54;;;;;;;12.82;2.28;;;5.40;92.80;;;;;;5106477;27;20122;-65
2021/01/13 10:55:22;;;;;;;16.05;2.28;;;5.40;92.70;;;;;;5119999;27;20043;-66
2021/01/13 10:57:52;;;;;;;8.65;1.98;;;5.50;92.60;;;;;;5097132;28;20051;-66
2021/01/13 11:00:19;;;;;;;11.65;1.90;;;5.40;92.80;;;;;;5107736;28;20036;-66
2021/01/13 11:02:56;;;;;;;14.70;2.15;;;5.30;93.00;;;;;;5098658;28;20048;-65
2021/01/13 11:05:22;;;;;;;16.75;2.38;;;5.40;93.00;;;;;;5106566;28;20042;-68
2021/01/13 11:07:51;;;;;;;8.63;2.25;;;5.50;92.70;;;;;;5108106;28;20263;-68
2021/01/13 11:10:21;;;;;;;15.00;2.65;;;5.60;92.30;;;;;;5118438;28;20058;-68
2021/01/13 11:12:47;;;;;;;8.23;1.83;;;5.70;92.60;;;;;;5108345;27;20040;-69
2021/01/13 11:15:14;;;;;;;13.93;2.08;;;5.80;92.70;;;;;;5115723;27;20040;-68
2021/01/13 11:17:40;;;;;;;13.93;2.58;;;5.90;92.60;;;;;;5109596;28;20110;-66
2021/01/13 11:20:08;;;;;;;15.15;2.55;;;5.90;92.00;;;;;;5119515;28;20076;-66
2021/01/13 11:22:45;;;;;;;10.43;2.67;;;5.90;91.70;;;;;;5109084;28;20075;-69
2021/01/13 11:25:39;;;;;;;12.40;2.28;;;5.90;92.20;;;;;;5117849;28;20032;-69
2021/01/13 11:28:13;;;;;;;8.15;1.70;;;6.00;91.70;;;;;;5098356;28;20048;-63
2021/01/13 11:30:44;;;;;;;18.38;2.22;;;6.00;91.20;;;;;;5110831;28;20063;-68
2021/01/13 11:33:12;;;;;;;10.27;1.77;;;6.20;90.90;;;;;;5105415;28;20591;-70
2021/01/13 11:35:43;;;;;;;12.38;3.15;;;6.20;90.70;;;;;;5112899;28;20070;-70
2021/01/13 11:38:36;;;;;;;7.93;1.80;;;6.20;90.40;;;;;;5105028;28;20055;-71
2021/01/13 11:41:34;;;;;;;13.45;1.90;;;6.30;91.70;;;;;;5118663;28;20185;-70
2021/01/13 11:44:22;;;;;;;7.18;1.60;;;6.20;91.00;;;;;;5110522;27;20047;-71
2021/01/13 11:47:09;;;;;;;10.10;1.50;;;6.20;90.80;;;;;;5116584;28;20063;-71
2021/01/13 11:49:40;;;;;;;8.98;1.75;;;6.20;90.50;;;;;;5107048;27;20103;-71
2021/01/13 11:52:08;;;;;;;8.10;1.60;;;6.20;90.30;;;;;;5107540;28;20047;-71
2021/01/13 11:54:35;;;;;;;8.70;1.48;;;6.30;90.80;;;;;;5112777;28;20082;-65
2021/01/13 11:57:22;;;;;;;8.13;1.38;;;6.30;90.70;;;;;;5101500;28;20143;-66
2021/01/13 11:59:53;;;;;;;9.98;1.88;;;6.30;90.40;;;;;;5080952;28;20143;-67
2021/01/13 12:02:30;;;;;;;4.60;1.27;;;6.30;90.30;;;;;;5104857;28;20056;-66
2021/01/13 12:04:56;;;;;;;11.63;1.55;;;6.30;90.20;;;;;;5107109;27;20315;-65
2021/01/13 12:07:22;;;;;;;10.00;1.60;;;6.20;90.10;;;;;;5107784;28;20040;-66
2021/01/13 12:10:09;;;;;;;5.95;1.40;;;6.30;90.00;;;;;;5100985;28;20043;-66
2021/01/13 12:12:35;;;;;;;11.60;1.85;;;6.40;89.80;;;;;;5096946;28;20058;-66
2021/01/13 12:15:11;;;;;;;11.18;1.85;;;6.40;90.40;;;;;;5117351;28;20047;-65
2021/01/13 12:17:49;;;;;;;7.15;1.73;;;6.30;89.20;;;;;;5094100;28;20055;-66
2021/01/13 12:20:31;;;;;;;6.75;1.50;;;6.40;89.20;;;;;;5093513;28;20048;-66
2021/01/13 12:22:57;;;;;;;8.02;1.38;;;6.40;87.50;;;;;;5096417;28;20078;-65
2021/01/13 12:25:26;;;;;;;10.40;1.33;;;6.50;86.60;;;;;;5103609;28;20036;-66
2021/01/13 12:28:12;;;;;;;9.88;1.85;;;6.50;87.60;;;;;;5087936;28;20115;-66
2021/01/13 12:30:52;;;;;;;7.55;1.98;;;6.30;87.60;;;;;;5115341;28;20050;-66
2021/01/13 12:33:18;;;;;;;11.93;2.40;;;6.30;87.90;;;;;;5094835;28;20171;-66
2021/01/13 12:35:44;;;;;;;6.38;1.52;;;6.30;87.90;;;;;;5115981;27;20074;-66
2021/01/13 12:38:10;;;;;;;8.38;1.38;;;6.40;88.10;;;;;;5087598;28;20052;-66
2021/01/13 12:40:36;;;;;;;8.93;1.30;;;6.60;87.80;;;;;;5102660;28;20516;-66
2021/01/13 12:43:19;;;;;;;6.32;1.55;;;6.70;88.10;;;;;;5094195;28;20041;-66
2021/01/13 12:45:46;;;;;;;7.05;1.85;;;6.60;88.40;;;;;;5109822;28;20156;-64
2021/01/13 12:48:13;;;;;;;10.48;1.88;;;6.60;87.20;;;;;;5093994;28;20154;-63
2021/01/13 12:50:41;;;;;;;9.00;1.48;;;6.60;87.20;;;;;;5110533;28;20135;-65
2021/01/13 12:53:06;;;;;;;6.57;1.40;;;6.50;85.30;;;;;;5107538;28;20148;-70
2021/01/13 12:55:32;;;;;;;7.78;1.80;;;6.60;83.80;;;;;;5101452;28;20495;-67
2021/01/13 12:57:59;;;;;;;6.10;1.33;;;6.50;82.70;;;;;;5094178;28;20047;-67
2021/01/13 13:00:26;;;;;;;6.22;1.25;;;6.40;83.90;;;;;;5117337;28;20138;-64
2021/01/13 13:02:53;;;;;;;8.88;1.85;;;6.40;83.80;;;;;;5107760;28;20036;-64
2021/01/13 13:05:18;;;;;;;5.75;1.52;;;6.40;81.70;;;;;;5096087;28;20040;-65
2021/01/13 13:07:44;;;;;;;9.02;2.55;;;6.40;83.40;;;;;;5087503;28;20151;-65
2021/01/13 13:10:11;;;;;;;7.88;1.67;;;6.40;83.60;;;;;;5109182;28;20040;-64
2021/01/13 13:12:37;;;;;;;5.93;1.80;;;6.40;83.80;;;;;;5110030;28;20138;-66
2021/01/13 13:15:03;;;;;;;9.85;1.95;;;6.50;83.60;;;;;;5120193;27;20554;-64
2021/01/13 13:17:29;;;;;;;8.23;1.50;;;6.60;84.10;;;;;;5104477;28;20104;-62
2021/01/13 13:19:55;;;;;;;8.77;2.08;;;6.70;84.00;;;;;;5088748;28;20071;-63
2021/01/13 13:22:21;;;;;;;11.13;1.70;;;6.60;83.80;;;;;;5110067;28;20056;-63